Latest Weather Observations for Tocal

IDN60801

Issued at 8:03 am EST Tuesday 26 September 2017 (issued every 30 minutes, with the page automatically refreshed every 10 minutes)

About weather observations | Map of weather stations | Latest weather observations for NSW | Other Formats
Station Details ID: 061250 Name: TOCAL AWS Lat: -32.63 Lon: 151.59 Height: 30.0 m
Data from the previous 72 hours. | See also: Recent months at Tocal
Date/Time
EST
Temp
°C
App
Temp
°C
Dew
Point
°C
Rel
Hum
%
Delta-T
°C
Wind Press
QNH
hPa
Press
MSL
hPa
Rain since
9am
mm
Dir  Spd
km/h
Gust
km/h
Spd
kts
Gust
kts
26/08:00am 17.4 14.3 3.7 40 6.4 ENE 9 9 5 5 - - 0.0
26/07:30am 14.2 12.2 4.2 51 4.6 NNE 4 7 2 4 - - 0.0
26/07:00am 11.0 9.4 2.4 55 3.7 CALM 0 0 0 0 - - 0.0
26/06:30am 10.5 8.1 2.0 55 3.6 WSW 4 6 2 3 - - 0.0
26/06:00am 9.3 7.7 2.2 61 3.0 CALM 0 0 0 0 - - 0.0
26/05:30am 9.7 6.7 1.8 58 3.3 WNW 7 7 4 4 - - 0.0
26/05:00am 10.0 7.1 1.6 56 3.5 NW 6 7 3 4 - - 0.0
26/04:30am 11.7 9.9 1.3 49 4.4 CALM 0 0 0 0 - - 0.0
26/04:00am 12.2 10.5 1.7 48 4.5 CALM 0 0 0 0 - - 0.0
26/03:30am 13.0 11.1 0.3 41 5.3 CALM 0 0 0 0 - - 0.0
26/03:00am 13.7 11.8 0.4 40 5.6 CALM 0 0 0 0 - - 0.0
26/02:30am 13.5 11.2 0.4 40 5.5 N 2 6 1 3 - - 0.0
26/02:00am 15.4 13.1 0.1 35 6.5 W 2 6 1 3 - - 0.0
26/01:30am 17.1 13.3 -0.5 30 7.5 WNW 9 11 5 6 - - 0.0
26/01:00am 18.4 13.3 -1.8 25 8.5 WSW 15 20 8 11 - - 0.0
26/12:30am 18.5 13.8 -1.6 25 8.5 WSW 13 20 7 11 - - 0.0
26/12:00am 18.3 14.5 -0.5 28 8.1 W 9 15 5 8 - - 0.0
 
Date/Time
EST
Temp
°C
App
Temp
°C
Dew
Point
°C
Rel
Hum
%
Delta-T
°C
Wind Press
QNH
hPa
Press
MSL
hPa
Rain since
9am
mm
Dir  Spd
km/h
Gust
km/h
Spd
kts
Gust
kts
25/11:30pm 19.4 14.6 -2.2 23 9.1 WSW 13 24 7 13 - - 0.0
25/11:00pm 19.9 14.7 -2.9 21 9.5 WSW 15 26 8 14 - - 0.0
25/10:30pm 20.1 14.8 -3.3 20 9.7 WSW 15 20 8 11 - - 0.0
25/10:00pm 20.6 15.2 -4.5 18 10.2 SW 15 20 8 11 - - 0.0
25/09:30pm 21.3 16.2 -5.2 16 10.7 WSW 13 17 7 9 - - 0.0
25/09:00pm 21.8 16.6 -6.6 14 11.2 W 13 22 7 12 - - 0.0
25/08:30pm 22.1 16.0 -8.1 12 11.6 W 17 28 9 15 - - 0.0
25/08:00pm 22.6 16.4 -8.4 12 11.9 W 17 28 9 15 - - 0.0
25/07:30pm 23.1 16.2 -10.0 10 12.4 W 20 33 11 18 - - 0.0
25/07:00pm 23.7 17.5 -8.6 11 12.5 W 17 28 9 15 - - 0.0
25/06:30pm 24.3 17.7 -9.2 10 12.9 WNW 19 32 10 17 - - 0.0
25/06:00pm 24.9 18.0 -10.6 9 13.4 WNW 20 37 11 20 - - 0.0
25/05:30pm 25.7 17.9 -13.0 7 14.1 WNW 24 39 13 21 - - 0.0
25/05:00pm 26.5 18.6 -13.7 6 14.6 WNW 24 43 13 23 - - 0.0
25/04:30pm 26.9 19.2 -11.8 7 14.6 WNW 24 37 13 20 - - 0.0
25/04:00pm 27.2 19.8 -7.6 9 14.2 WNW 24 48 13 26 - - 0.0
25/03:30pm 27.6 19.8 -8.1 9 14.5 NW 26 44 14 24 - - 0.0
25/03:00pm 27.5 20.5 -7.2 10 14.3 NW 22 44 12 24 - - 0.0
25/02:32pm 27.6 18.7 -6.8 10 14.3 NW 32 50 17 27 - - 0.0
25/02:30pm 27.6 18.5 -7.4 9 14.4 NW 33 50 18 27 - - 0.0
25/02:00pm 28.7 20.2 -6.8 9 14.9 NW 30 54 16 29 - - 0.0
25/01:48pm 30.7 22.7 -6.0 9 15.9 NW 28 46 15 25 - - 0.0
25/01:30pm 30.8 24.3 -6.3 8 16.0 WNW 20 39 11 21 - - 0.0
25/01:02pm 30.3 22.1 -7.5 8 15.9 WNW 28 46 15 25 - - 0.0
25/01:00pm 30.5 22.8 -6.7 8 15.9 WNW 26 46 14 25 - - 0.0
25/12:30pm 29.6 21.1 -7.4 8 15.5 W 30 48 16 26 - - 0.0
25/12:00pm 29.5 21.0 -7.1 9 15.4 WNW 30 57 16 31 - - 0.0
25/11:30am 28.9 19.8 -7.4 9 15.1 NW 33 52 18 28 - - 0.0
25/11:00am 29.1 20.1 -6.0 10 15.0 NW 33 54 18 29 - - 0.0
25/10:40am 27.9 19.9 -5.8 10 14.3 WNW 28 50 15 27 - - 0.0
25/10:30am 28.2 21.4 -4.8 11 14.3 WNW 22 37 12 20 - - 0.0
25/10:10am 27.8 19.9 -5.0 11 14.1 WNW 28 54 15 29 - - 0.0
25/10:00am 28.4 21.6 -2.2 13 13.9 WNW 24 43 13 23 - - 0.0
25/09:30am 27.6 21.0 -3.4 13 13.7 NW 22 41 12 22 - - 0.0
25/09:00am 27.0 21.2 -1.2 15 12.9 NW 19 35 10 19 - - 0.0
25/08:30am 25.0 21.4 3.0 24 10.7 N 11 15 6 8 - - 0.0
25/08:00am 20.4 18.7 7.6 43 6.6 NNE 6 7 3 4 - - 0.0
25/07:30am 17.8 16.0 8.0 52 5.0 ENE 7 7 4 4 - - 0.0
25/07:00am 16.9 16.5 8.3 57 4.4 CALM 0 0 0 0 - - 0.0
25/06:30am 14.4 14.1 8.7 68 2.9 CALM 0 0 0 0 - - 0.0
25/06:00am 14.1 13.5 7.6 65 3.2 CALM 0 6 0 3 - - 0.0
25/05:30am 12.9 13.0 11.4 91 0.8 N 2 7 1 4 - - 0.0
25/05:00am 14.9 13.6 10.1 73 2.5 NNE 7 7 4 4 - - 0.0
25/04:30am 16.4 16.3 9.5 63 3.6 CALM 0 0 0 0 - - 0.0
25/04:00am 16.4 16.6 10.4 67 3.2 CALM 0 0 0 0 - - 0.0
25/03:30am 16.9 16.5 9.6 62 3.8 WSW 2 7 1 4 - - 0.0
25/03:00am 17.1 17.5 11.2 68 3.2 CALM 0 0 0 0 - - 0.0
25/02:30am 16.0 15.4 11.8 76 2.3 NW 6 9 3 5 - - 0.0
25/02:00am 16.9 17.7 12.4 75 2.5 CALM 0 0 0 0 - - 0.0
25/01:30am 16.8 16.9 12.8 77 2.2 NNE 4 7 2 4 - - 0.0
25/01:00am 18.9 17.7 11.6 62 4.0 SW 9 9 5 5 - - 0.0
25/12:30am 17.9 18.3 12.5 70 3.0 WSW 2 7 1 4 - - 0.0
25/12:00am 17.5 18.4 12.8 74 2.6 CALM 0 0 0 0 - - 0.0
 
Date/Time
EST
Temp
°C
App
Temp
°C
Dew
Point
°C
Rel
Hum
%
Delta-T
°C
Wind Press
QNH
hPa
Press
MSL
hPa
Rain since
9am
mm
Dir  Spd
km/h
Gust
km/h
Spd
kts
Gust
kts
24/11:30pm 18.6 19.3 12.3 67 3.5 CALM 0 0 0 0 - - 0.0
24/11:00pm 18.9 19.6 12.3 65 3.7 CALM 0 0 0 0 - - 0.0
24/10:30pm 19.2 18.6 11.8 62 4.1 WNW 6 9 3 5 - - 0.0
24/10:00pm 19.6 20.2 11.8 60 4.3 CALM 0 0 0 0 - - 0.0
24/09:30pm 20.0 20.7 12.3 61 4.3 CALM 0 0 0 0 - - 0.0
24/09:00pm 20.7 20.6 12.1 58 4.8 SE 4 7 2 4 - - 0.0
24/08:30pm 21.3 22.1 12.5 57 5.0 CALM 0 0 0 0 - - 0.0
24/08:00pm 21.5 21.8 12.3 55 5.2 W 2 7 1 4 - - 0.0
24/07:30pm 22.3 22.8 11.6 50 6.0 CALM 0 0 0 0 - - 0.0
24/07:00pm 23.3 23.6 10.9 45 6.9 CALM 0 0 0 0 - - 0.0
24/06:30pm 25.5 23.4 6.8 30 9.8 WSW 7 7 4 4 - - 0.0
24/06:00pm 28.1 25.0 1.4 18 12.9 WNW 7 9 4 5 - - 0.0
24/05:30pm 28.5 25.0 1.5 17 13.1 NNW 9 11 5 6 - - 0.0
24/05:00pm 29.8 26.1 0.1 14 14.2 NW 9 17 5 9 - - 0.0
24/04:30pm 30.7 26.7 0.2 14 14.7 W 11 17 6 9 - - 0.0
24/04:00pm 31.7 25.5 -0.3 13 15.4 W 22 35 12 19 - - 0.0
24/03:30pm 32.4 25.8 -0.7 12 15.9 W 24 41 13 22 - - 0.0
24/03:00pm 32.7 25.3 -0.8 11 16.1 W 28 41 15 22 - - 0.0
24/02:30pm 34.1 28.0 0.7 12 16.6 NNW 22 30 12 16 - - 0.0
24/02:00pm 34.0 26.6 -0.5 11 16.8 NW 28 39 15 21 - - 0.0
24/01:30pm 34.3 26.0 -1.5 10 17.2 WNW 32 52 17 28 - - 0.0
24/01:14pm 34.9 27.5 -0.7 10 17.4 WNW 28 46 15 25 - - 0.0
24/01:00pm 35.1 27.8 -0.2 10 17.4 NNW 28 43 15 23 - - 0.0
24/12:30pm 34.3 26.7 0.4 11 16.8 WNW 30 50 16 27 - - 0.0
24/12:00pm 34.0 25.4 0.0 11 16.7 NW 35 54 19 29 - - 0.0
24/11:30am 33.9 25.4 1.1 12 16.4 NW 35 54 19 29 - - 0.0
24/11:00am 34.0 25.9 0.9 12 16.5 NW 33 54 18 29 - - 0.0
24/10:30am 34.3 25.8 0.8 12 16.7 NW 35 57 19 31 - - 0.0
24/10:15am 33.9 26.6 0.2 11 16.6 NW 28 50 15 27 - - 0.0
24/10:00am 34.5 27.9 -0.5 11 17.1 NNW 24 46 13 25 - - 0.0
24/09:30am 33.3 25.4 0.8 12 16.1 NNW 32 48 17 26 - - 0.0
24/09:00am 32.6 24.1 0.7 13 15.7 NNW 35 54 19 29 - - 0.0
24/08:30am 32.1 23.7 1.6 14 15.2 NW 35 57 19 31 - - 0.0
24/08:00am 31.1 23.2 1.2 14 14.7 NW 32 61 17 33 - - 0.0
24/07:34am 31.8 23.7 0.0 13 15.4 NW 32 56 17 30 - - 0.0
24/07:30am 31.6 23.7 0.8 14 15.1 NW 32 44 17 24 - - 0.0
24/07:00am 31.2 22.2 0.2 13 15.0 NW 37 57 20 31 - - 0.0
24/06:30am 30.8 21.4 0.0 14 14.8 NW 39 70 21 38 - - 0.0
24/06:26am 30.9 21.8 -0.6 13 15.0 NW 37 70 20 38 - - 0.0
24/06:00am 31.0 23.6 -0.8 13 15.1 NW 28 46 15 25 - - 0.0
24/05:32am 31.3 23.0 -1.4 12 15.4 NW 32 50 17 27 - - 0.0
24/05:30am 31.1 22.8 -1.5 12 15.3 NW 32 48 17 26 - - 0.0
24/05:00am 31.0 23.4 -2.2 11 15.4 NW 28 50 15 27 - - 0.0
24/04:59am 30.9 23.3 -2.0 12 15.3 NW 28 50 15 27 - - 0.0
24/04:30am 30.8 24.0 -1.8 12 15.2 WNW 24 48 13 26 - - 0.0
24/04:16am 31.2 23.5 -2.7 11 15.6 WNW 28 54 15 29 - - 0.0
24/04:00am 31.2 24.7 -2.7 11 15.6 WNW 22 39 12 21 - - 0.0
24/03:40am 31.0 23.3 -2.8 11 15.5 W 28 57 15 31 - - 0.0
24/03:30am 31.1 24.9 -3.5 10 15.7 W 20 35 11 19 - - 0.0
24/03:00am 31.9 25.2 -4.3 9 16.3 NNW 22 39 12 21 - - 0.0
24/02:39am 32.2 24.3 -4.4 9 16.5 NNW 28 46 15 25 - - 0.0
24/02:30am 31.2 23.5 -2.7 11 15.6 NNW 28 44 15 24 - - 0.0
24/02:16am 30.8 23.8 -3.4 11 15.5 NNW 24 32 13 17 - - 0.0
24/02:00am 24.7 22.2 1.7 22 10.9 NW 4 11 2 6 - - 0.0
24/01:50am 21.0 18.6 4.3 33 8.1 SW 6 11 3 6 - - 0.0
24/01:30am 16.0 14.2 8.1 59 4.0 ENE 7 13 4 7 - - 0.0
24/01:00am 17.7 16.2 6.6 48 5.5 W 4 11 2 6 - - 0.0
24/12:47am 18.0 16.1 6.5 47 5.7 E 6 9 3 5 - - 0.0
24/12:30am 23.0 19.2 3.7 28 9.4 SW 13 15 7 8 - - 0.0
24/12:00am 19.4 17.9 6.7 43 6.4 ENE 4 9 2 5 - - 0.0
 
Date/Time
EST
Temp
°C
App
Temp
°C
Dew
Point
°C
Rel
Hum
%
Delta-T
°C
Wind Press
QNH
hPa
Press
MSL
hPa
Rain since
9am
mm
Dir  Spd
km/h
Gust
km/h
Spd
kts
Gust
kts
23/11:30pm 21.1 18.7 5.1 35 7.9 SW 7 9 4 5 - - 0.0
23/11:00pm 19.4 17.4 6.4 42 6.5 NNW 6 7 3 4 - - 0.0
23/10:30pm 23.1 21.0 3.8 28 9.4 NW 4 9 2 5 - - 0.0
23/10:00pm 25.0 23.6 3.7 25 10.5 CALM 0 6 0 3 - - 0.0
23/09:30pm 26.1 22.4 2.4 21 11.5 SW 11 13 6 7 - - 0.0
23/09:00pm 27.7 24.9 3.2 20 12.2 NNW 7 15 4 8 - - 0.0
23/08:30pm 29.1 24.4 0.9 16 13.6 N 15 22 8 12 - - 0.0
23/08:00pm 28.0 25.2 3.4 20 12.3 NNW 7 9 4 5 - - 0.0
23/07:30pm 30.6 26.5 0.0 14 14.7 N 11 17 6 9 - - 0.0
23/07:00pm 28.4 25.1 2.5 19 12.8 NNW 9 13 5 7 - - 0.0
23/06:30pm 29.6 - 1.7 16 13.7 - - - - - - - 0.0
23/06:00pm 30.0 26.7 2.2 17 13.8 NNW 9 19 5 10 - - 0.0
23/05:30pm 32.0 27.0 -0.9 12 15.7 N 15 26 8 14 - - 0.0
23/05:00pm 33.0 28.2 0.0 12 16.1 N 15 28 8 15 - - 0.0
23/04:30pm 33.6 29.1 -0.6 11 16.6 N 13 17 7 9 - - 0.0
23/04:00pm 34.4 28.5 -2.3 9 17.4 NW 19 33 10 18 - - 0.0
23/03:45pm 35.1 27.3 -3.8 8 18.1 N 28 46 15 25 - - 0.0
23/03:30pm 35.4 29.4 -2.8 8 18.1 N 19 32 10 17 - - 0.0
23/03:00pm 35.8 29.6 -4.9 7 18.7 NW 19 39 10 21 - - 0.0
23/02:30pm 35.2 30.0 2.3 12 16.9 NNW 19 26 10 14 - - 0.0
23/02:00pm 31.7 30.3 9.7 25 12.5 ENE 7 13 4 7 - - 0.0
23/01:30pm 29.6 28.1 8.3 26 11.7 ENE 6 7 3 4 - - 0.0
23/01:00pm 29.4 28.9 8.0 26 11.7 CALM 0 0 0 0 - - 0.0
23/12:30pm 27.6 25.7 7.4 28 10.8 NNE 7 9 4 5 - - 0.0
23/12:00pm 25.9 25.6 8.5 33 9.4 CALM 0 0 0 0 - - 0.0
23/11:30am 23.6 22.5 8.4 37 8.1 SE 4 9 2 5 - - 0.0
23/11:00am 23.7 23.3 8.3 37 8.2 CALM 0 6 0 3 - - 0.0
23/10:30am 23.1 22.2 7.9 37 8.0 E 2 9 1 5 - - 0.0
23/10:00am 22.6 20.7 7.7 38 7.8 E 7 11 4 6 - - 0.0
23/09:30am 20.7 18.0 7.2 41 6.9 ENE 11 15 6 8 - - 0.0
23/09:00am 18.7 16.5 6.2 44 6.2 N 7 13 4 7 - - 0.0
23/08:30am 17.3 15.1 6.3 48 5.4 NNE 7 17 4 9 - - 0.0

Other Formats:

Comma delimited format used in spreadsheet applications
http://www.bom.gov.au/fwo/IDN60801/IDN60801.94775.axf

JavaScript Object Notation format (JSON) in row-major order
http://www.bom.gov.au/fwo/IDN60801/IDN60801.94775.json